sensor_id;sensor_type;location;lat;lon;timestamp;P1;durP1;ratioP1;P2;durP2;ratioP2
84027;SDS011;74111;45.650;25.612;2024-03-29T00:03:38;1.60;;;0.60;;
84027;SDS011;74111;45.650;25.612;2024-03-29T00:06:07;4.00;;;1.30;;
84027;SDS011;74111;45.650;25.612;2024-03-29T00:08:37;2.70;;;1.10;;
84027;SDS011;74111;45.650;25.612;2024-03-29T00:11:06;1.60;;;0.90;;
84027;SDS011;74111;45.650;25.612;2024-03-29T00:13:38;0.90;;;0.80;;
84027;SDS011;74111;45.650;25.612;2024-03-29T00:16:08;2.90;;;0.80;;
84027;SDS011;74111;45.650;25.612;2024-03-29T00:18:37;1.20;;;0.80;;
84027;SDS011;74111;45.650;25.612;2024-03-29T00:21:06;2.50;;;1.20;;
84027;SDS011;74111;45.650;25.612;2024-03-29T00:23:34;2.40;;;1.10;;
84027;SDS011;74111;45.650;25.612;2024-03-29T00:26:04;1.20;;;0.80;;
84027;SDS011;74111;45.650;25.612;2024-03-29T00:28:33;1.80;;;1.00;;
84027;SDS011;74111;45.650;25.612;2024-03-29T00:31:03;1.80;;;1.00;;
84027;SDS011;74111;45.650;25.612;2024-03-29T00:33:34;1.90;;;0.80;;
84027;SDS011;74111;45.650;25.612;2024-03-29T00:36:03;1.40;;;0.80;;
84027;SDS011;74111;45.650;25.612;2024-03-29T00:38:31;2.20;;;0.90;;
84027;SDS011;74111;45.650;25.612;2024-03-29T00:43:29;1.60;;;0.50;;
84027;SDS011;74111;45.650;25.612;2024-03-29T00:45:57;4.00;;;0.80;;
84027;SDS011;74111;45.650;25.612;2024-03-29T00:48:26;1.40;;;0.70;;
84027;SDS011;74111;45.650;25.612;2024-03-29T00:50:56;2.80;;;1.00;;
84027;SDS011;74111;45.650;25.612;2024-03-29T00:53:24;4.00;;;2.00;;
84027;SDS011;74111;45.650;25.612;2024-03-29T00:55:53;3.60;;;1.50;;
84027;SDS011;74111;45.650;25.612;2024-03-29T00:58:22;5.30;;;3.30;;
84027;SDS011;74111;45.650;25.612;2024-03-29T01:00:51;4.90;;;3.10;;
84027;SDS011;74111;45.650;25.612;2024-03-29T01:03:21;5.70;;;3.60;;
84027;SDS011;74111;45.650;25.612;2024-03-29T01:05:50;9.30;;;4.70;;
84027;SDS011;74111;45.650;25.612;2024-03-29T01:08:20;8.00;;;5.30;;
84027;SDS011;74111;45.650;25.612;2024-03-29T01:10:49;9.80;;;5.30;;
84027;SDS011;74111;45.650;25.612;2024-03-29T01:13:19;10.00;;;4.90;;
84027;SDS011;74111;45.650;25.612;2024-03-29T01:15:48;10.00;;;6.40;;
84027;SDS011;74111;45.650;25.612;2024-03-29T01:18:17;9.70;;;6.80;;
84027;SDS011;74111;45.650;25.612;2024-03-29T01:20:46;9.90;;;6.50;;
84027;SDS011;74111;45.650;25.612;2024-03-29T01:23:15;14.90;;;8.30;;
84027;SDS011;74111;45.650;25.612;2024-03-29T01:25:44;13.30;;;7.60;;
84027;SDS011;74111;45.650;25.612;2024-03-29T01:28:13;12.30;;;7.80;;
84027;SDS011;74111;45.650;25.612;2024-03-29T01:30:41;19.00;;;10.10;;
84027;SDS011;74111;45.650;25.612;2024-03-29T01:33:11;13.20;;;9.40;;
84027;SDS011;74111;45.650;25.612;2024-03-29T01:35:40;12.10;;;8.30;;
84027;SDS011;74111;45.650;25.612;2024-03-29T01:38:10;12.30;;;8.60;;
84027;SDS011;74111;45.650;25.612;2024-03-29T01:40:39;15.20;;;9.50;;
84027;SDS011;74111;45.650;25.612;2024-03-29T01:43:09;18.00;;;9.30;;
84027;SDS011;74111;45.650;25.612;2024-03-29T01:48:07;11.70;;;8.20;;
84027;SDS011;74111;45.650;25.612;2024-03-29T01:50:37;11.00;;;7.90;;
84027;SDS011;74111;45.650;25.612;2024-03-29T01:53:06;12.30;;;7.50;;
84027;SDS011;74111;45.650;25.612;2024-03-29T01:55:38;14.50;;;8.10;;
84027;SDS011;74111;45.650;25.612;2024-03-29T01:58:11;14.80;;;8.00;;
84027;SDS011;74111;45.650;25.612;2024-03-29T02:00:48;11.40;;;7.50;;
84027;SDS011;74111;45.650;25.612;2024-03-29T02:03:25;14.20;;;8.10;;
84027;SDS011;74111;45.650;25.612;2024-03-29T02:05:55;10.00;;;7.10;;
84027;SDS011;74111;45.650;25.612;2024-03-29T02:08:26;10.10;;;7.30;;
84027;SDS011;74111;45.650;25.612;2024-03-29T02:10:55;13.80;;;8.30;;
84027;SDS011;74111;45.650;25.612;2024-03-29T02:13:26;13.10;;;8.40;;
84027;SDS011;74111;45.650;25.612;2024-03-29T02:15:55;12.90;;;7.30;;
84027;SDS011;74111;45.650;25.612;2024-03-29T02:18:24;12.80;;;8.30;;
84027;SDS011;74111;45.650;25.612;2024-03-29T02:20:53;13.70;;;7.30;;
84027;SDS011;74111;45.650;25.612;2024-03-29T02:23:29;12.30;;;6.70;;
84027;SDS011;74111;45.650;25.612;2024-03-29T02:26:00;10.10;;;6.70;;
84027;SDS011;74111;45.650;25.612;2024-03-29T02:28:29;9.70;;;6.10;;
84027;SDS011;74111;45.650;25.612;2024-03-29T02:30:58;9.50;;;6.60;;
84027;SDS011;74111;45.650;25.612;2024-03-29T02:33:28;9.10;;;6.10;;
84027;SDS011;74111;45.650;25.612;2024-03-29T02:35:56;10.90;;;6.20;;
84027;SDS011;74111;45.650;25.612;2024-03-29T02:38:25;9.50;;;6.20;;
84027;SDS011;74111;45.650;25.612;2024-03-29T02:40:55;9.90;;;6.40;;
84027;SDS011;74111;45.650;25.612;2024-03-29T02:43:25;11.60;;;6.70;;
84027;SDS011;74111;45.650;25.612;2024-03-29T02:45:53;8.80;;;5.70;;
84027;SDS011;74111;45.650;25.612;2024-03-29T02:48:22;9.20;;;5.90;;
84027;SDS011;74111;45.650;25.612;2024-03-29T02:50:51;7.10;;;5.30;;
84027;SDS011;74111;45.650;25.612;2024-03-29T02:53:19;6.60;;;4.80;;
84027;SDS011;74111;45.650;25.612;2024-03-29T02:55:49;8.80;;;5.40;;
84027;SDS011;74111;45.650;25.612;2024-03-29T02:58:18;9.00;;;5.60;;
84027;SDS011;74111;45.650;25.612;2024-03-29T03:00:47;12.70;;;5.70;;
84027;SDS011;74111;45.650;25.612;2024-03-29T03:03:17;10.00;;;5.80;;
84027;SDS011;74111;45.650;25.612;2024-03-29T03:05:46;8.90;;;5.60;;
84027;SDS011;74111;45.650;25.612;2024-03-29T03:08:16;8.50;;;5.50;;
84027;SDS011;74111;45.650;25.612;2024-03-29T03:11:08;7.00;;;4.40;;
84027;SDS011;74111;45.650;25.612;2024-03-29T03:13:36;8.10;;;4.90;;
84027;SDS011;74111;45.650;25.612;2024-03-29T03:18:34;8.30;;;5.50;;
84027;SDS011;74111;45.650;25.612;2024-03-29T03:21:02;8.20;;;5.00;;
84027;SDS011;74111;45.650;25.612;2024-03-29T03:23:32;10.10;;;5.30;;
84027;SDS011;74111;45.650;25.612;2024-03-29T03:26:01;9.30;;;5.50;;
84027;SDS011;74111;45.650;25.612;2024-03-29T03:28:34;9.60;;;5.80;;
84027;SDS011;74111;45.650;25.612;2024-03-29T03:31:04;8.40;;;5.40;;
84027;SDS011;74111;45.650;25.612;2024-03-29T03:33:36;8.60;;;5.30;;
84027;SDS011;74111;45.650;25.612;2024-03-29T03:36:04;10.40;;;5.30;;
84027;SDS011;74111;45.650;25.612;2024-03-29T03:38:34;9.00;;;5.80;;
84027;SDS011;74111;45.650;25.612;2024-03-29T03:41:06;8.70;;;5.70;;
84027;SDS011;74111;45.650;25.612;2024-03-29T03:43:34;15.70;;;6.30;;
84027;SDS011;74111;45.650;25.612;2024-03-29T03:46:04;10.30;;;6.60;;
84027;SDS011;74111;45.650;25.612;2024-03-29T03:48:33;10.50;;;5.80;;
84027;SDS011;74111;45.650;25.612;2024-03-29T03:51:02;10.80;;;6.10;;
84027;SDS011;74111;45.650;25.612;2024-03-29T03:53:31;14.70;;;6.40;;
84027;SDS011;74111;45.650;25.612;2024-03-29T03:56:00;12.30;;;6.30;;
84027;SDS011;74111;45.650;25.612;2024-03-29T03:58:29;14.00;;;5.70;;
84027;SDS011;74111;45.650;25.612;2024-03-29T04:01:03;8.60;;;5.20;;
84027;SDS011;74111;45.650;25.612;2024-03-29T04:03:33;8.80;;;5.40;;
84027;SDS011;74111;45.650;25.612;2024-03-29T04:06:04;7.70;;;4.90;;
84027;SDS011;74111;45.650;25.612;2024-03-29T04:08:33;8.80;;;4.60;;
84027;SDS011;74111;45.650;25.612;2024-03-29T04:11:03;5.40;;;4.40;;
84027;SDS011;74111;45.650;25.612;2024-03-29T04:13:32;7.00;;;3.60;;
84027;SDS011;74111;45.650;25.612;2024-03-29T04:16:05;6.30;;;3.20;;
84027;SDS011;74111;45.650;25.612;2024-03-29T04:18:34;7.80;;;3.80;;
84027;SDS011;74111;45.650;25.612;2024-03-29T04:21:03;7.30;;;3.90;;
84027;SDS011;74111;45.650;25.612;2024-03-29T04:23:32;4.10;;;2.30;;
84027;SDS011;74111;45.650;25.612;2024-03-29T04:26:02;5.70;;;3.10;;
84027;SDS011;74111;45.650;25.612;2024-03-29T04:28:32;4.20;;;2.50;;
84027;SDS011;74111;45.650;25.612;2024-03-29T04:31:01;3.30;;;2.50;;
84027;SDS011;74111;45.650;25.612;2024-03-29T04:33:30;4.40;;;1.90;;
84027;SDS011;74111;45.650;25.612;2024-03-29T04:36:01;2.30;;;1.40;;
84027;SDS011;74111;45.650;25.612;2024-03-29T04:38:32;1.30;;;1.20;;
84027;SDS011;74111;45.650;25.612;2024-03-29T04:41:01;2.20;;;1.50;;
84027;SDS011;74111;45.650;25.612;2024-03-29T04:43:30;1.90;;;1.10;;
84027;SDS011;74111;45.650;25.612;2024-03-29T04:46:06;2.40;;;1.10;;
84027;SDS011;74111;45.650;25.612;2024-03-29T04:48:41;1.30;;;0.80;;
84027;SDS011;74111;45.650;25.612;2024-03-29T04:51:11;2.80;;;1.10;;
84027;SDS011;74111;45.650;25.612;2024-03-29T04:53:41;2.30;;;1.30;;
84027;SDS011;74111;45.650;25.612;2024-03-29T04:56:10;3.40;;;1.00;;
84027;SDS011;74111;45.650;25.612;2024-03-29T04:58:39;2.60;;;0.90;;
84027;SDS011;74111;45.650;25.612;2024-03-29T05:01:08;3.50;;;1.00;;
84027;SDS011;74111;45.650;25.612;2024-03-29T05:03:38;3.10;;;1.00;;
84027;SDS011;74111;45.650;25.612;2024-03-29T05:08:35;4.50;;;1.20;;
84027;SDS011;74111;45.650;25.612;2024-03-29T05:11:04;2.10;;;0.70;;
84027;SDS011;74111;45.650;25.612;2024-03-29T05:13:35;2.40;;;1.10;;
84027;SDS011;74111;45.650;25.612;2024-03-29T05:16:04;3.30;;;1.00;;
84027;SDS011;74111;45.650;25.612;2024-03-29T05:18:33;3.00;;;1.00;;
84027;SDS011;74111;45.650;25.612;2024-03-29T05:21:05;1.80;;;0.90;;
84027;SDS011;74111;45.650;25.612;2024-03-29T05:23:36;1.60;;;0.90;;
84027;SDS011;74111;45.650;25.612;2024-03-29T05:26:05;2.10;;;1.10;;
84027;SDS011;74111;45.650;25.612;2024-03-29T05:28:35;3.50;;;1.20;;
84027;SDS011;74111;45.650;25.612;2024-03-29T05:31:11;4.90;;;2.00;;
84027;SDS011;74111;45.650;25.612;2024-03-29T05:33:44;2.20;;;1.40;;
84027;SDS011;74111;45.650;25.612;2024-03-29T05:36:14;3.60;;;1.70;;
84027;SDS011;74111;45.650;25.612;2024-03-29T05:38:43;2.90;;;1.20;;
84027;SDS011;74111;45.650;25.612;2024-03-29T05:41:12;6.50;;;1.90;;
84027;SDS011;74111;45.650;25.612;2024-03-29T05:43:41;4.50;;;1.50;;
84027;SDS011;74111;45.650;25.612;2024-03-29T05:46:10;5.90;;;1.90;;
84027;SDS011;74111;45.650;25.612;2024-03-29T05:48:39;8.00;;;1.70;;
84027;SDS011;74111;45.650;25.612;2024-03-29T05:53:38;4.10;;;1.30;;
84027;SDS011;74111;45.650;25.612;2024-03-29T05:56:08;4.50;;;1.20;;
84027;SDS011;74111;45.650;25.612;2024-03-29T05:58:37;1.70;;;0.90;;
84027;SDS011;74111;45.650;25.612;2024-03-29T06:01:05;2.80;;;1.40;;
84027;SDS011;74111;45.650;25.612;2024-03-29T06:03:35;2.90;;;1.30;;
84027;SDS011;74111;45.650;25.612;2024-03-29T06:06:03;4.40;;;2.00;;
84027;SDS011;74111;45.650;25.612;2024-03-29T06:08:32;5.20;;;1.50;;
84027;SDS011;74111;45.650;25.612;2024-03-29T06:11:01;4.90;;;1.60;;
84027;SDS011;74111;45.650;25.612;2024-03-29T06:13:30;1.90;;;1.10;;
84027;SDS011;74111;45.650;25.612;2024-03-29T06:16:23;3.00;;;1.20;;
84027;SDS011;74111;45.650;25.612;2024-03-29T06:21:40;3.50;;;1.40;;
84027;SDS011;74111;45.650;25.612;2024-03-29T06:24:11;1.50;;;0.90;;
84027;SDS011;74111;45.650;25.612;2024-03-29T06:26:44;2.70;;;1.70;;
84027;SDS011;74111;45.650;25.612;2024-03-29T06:29:13;4.40;;;1.60;;
84027;SDS011;74111;45.650;25.612;2024-03-29T06:31:42;3.20;;;0.90;;
84027;SDS011;74111;45.650;25.612;2024-03-29T06:34:11;3.10;;;1.00;;
84027;SDS011;74111;45.650;25.612;2024-03-29T06:36:40;1.50;;;1.00;;
84027;SDS011;74111;45.650;25.612;2024-03-29T06:39:11;1.40;;;1.20;;
84027;SDS011;74111;45.650;25.612;2024-03-29T06:41:40;3.20;;;1.20;;
84027;SDS011;74111;45.650;25.612;2024-03-29T06:44:08;2.80;;;1.00;;
84027;SDS011;74111;45.650;25.612;2024-03-29T06:46:38;3.00;;;1.10;;
84027;SDS011;74111;45.650;25.612;2024-03-29T06:49:18;2.50;;;1.10;;
84027;SDS011;74111;45.650;25.612;2024-03-29T06:51:50;1.60;;;1.00;;
84027;SDS011;74111;45.650;25.612;2024-03-29T06:54:19;1.80;;;1.10;;
84027;SDS011;74111;45.650;25.612;2024-03-29T06:56:52;1.30;;;0.90;;
84027;SDS011;74111;45.650;25.612;2024-03-29T06:59:22;3.80;;;1.20;;
84027;SDS011;74111;45.650;25.612;2024-03-29T07:01:50;2.90;;;1.80;;
84027;SDS011;74111;45.650;25.612;2024-03-29T07:04:23;1.80;;;1.00;;
84027;SDS011;74111;45.650;25.612;2024-03-29T07:06:53;2.30;;;1.00;;
84027;SDS011;74111;45.650;25.612;2024-03-29T07:09:22;2.50;;;1.20;;
84027;SDS011;74111;45.650;25.612;2024-03-29T07:11:52;2.50;;;1.00;;
84027;SDS011;74111;45.650;25.612;2024-03-29T07:14:23;4.00;;;1.40;;
84027;SDS011;74111;45.650;25.612;2024-03-29T07:16:54;3.50;;;1.00;;
84027;SDS011;74111;45.650;25.612;2024-03-29T07:19:23;3.10;;;1.10;;
84027;SDS011;74111;45.650;25.612;2024-03-29T07:21:52;1.50;;;0.80;;
84027;SDS011;74111;45.650;25.612;2024-03-29T07:24:22;3.00;;;1.10;;
84027;SDS011;74111;45.650;25.612;2024-03-29T07:26:52;1.00;;;0.80;;
84027;SDS011;74111;45.650;25.612;2024-03-29T07:29:21;1.10;;;0.60;;
84027;SDS011;74111;45.650;25.612;2024-03-29T07:31:49;2.40;;;1.00;;
84027;SDS011;74111;45.650;25.612;2024-03-29T07:34:19;0.70;;;0.70;;
84027;SDS011;74111;45.650;25.612;2024-03-29T07:36:49;3.40;;;1.10;;
84027;SDS011;74111;45.650;25.612;2024-03-29T07:39:19;4.00;;;1.10;;
84027;SDS011;74111;45.650;25.612;2024-03-29T07:41:48;1.80;;;1.00;;
84027;SDS011;74111;45.650;25.612;2024-03-29T07:44:18;5.60;;;1.70;;
84027;SDS011;74111;45.650;25.612;2024-03-29T07:46:47;5.00;;;1.00;;
84027;SDS011;74111;45.650;25.612;2024-03-29T07:49:16;1.30;;;0.90;;
84027;SDS011;74111;45.650;25.612;2024-03-29T07:51:49;2.70;;;1.30;;
84027;SDS011;74111;45.650;25.612;2024-03-29T07:54:18;2.40;;;0.90;;
84027;SDS011;74111;45.650;25.612;2024-03-29T07:56:50;4.80;;;1.00;;
84027;SDS011;74111;45.650;25.612;2024-03-29T07:59:19;1.50;;;0.80;;
84027;SDS011;74111;45.650;25.612;2024-03-29T08:01:48;5.20;;;2.00;;
84027;SDS011;74111;45.650;25.612;2024-03-29T08:04:18;4.10;;;0.90;;
84027;SDS011;74111;45.650;25.612;2024-03-29T08:06:47;3.40;;;1.10;;
84027;SDS011;74111;45.650;25.612;2024-03-29T08:09:16;9.20;;;1.10;;
84027;SDS011;74111;45.650;25.612;2024-03-29T08:11:46;4.40;;;1.30;;
84027;SDS011;74111;45.650;25.612;2024-03-29T08:14:15;1.90;;;0.80;;
84027;SDS011;74111;45.650;25.612;2024-03-29T08:16:44;2.10;;;1.20;;
84027;SDS011;74111;45.650;25.612;2024-03-29T08:19:13;2.40;;;0.90;;
84027;SDS011;74111;45.650;25.612;2024-03-29T08:21:42;3.20;;;1.00;;
84027;SDS011;74111;45.650;25.612;2024-03-29T08:24:13;6.60;;;1.30;;
84027;SDS011;74111;45.650;25.612;2024-03-29T08:26:42;2.70;;;1.30;;
84027;SDS011;74111;45.650;25.612;2024-03-29T08:29:11;4.00;;;1.60;;
84027;SDS011;74111;45.650;25.612;2024-03-29T08:31:40;2.90;;;1.10;;
84027;SDS011;74111;45.650;25.612;2024-03-29T08:34:09;4.60;;;1.10;;
84027;SDS011;74111;45.650;25.612;2024-03-29T08:36:41;4.10;;;1.20;;
84027;SDS011;74111;45.650;25.612;2024-03-29T08:39:11;2.60;;;0.90;;
84027;SDS011;74111;45.650;25.612;2024-03-29T08:41:40;3.60;;;1.10;;
84027;SDS011;74111;45.650;25.612;2024-03-29T08:44:09;2.50;;;0.80;;
84027;SDS011;74111;45.650;25.612;2024-03-29T08:46:38;3.40;;;1.10;;
84027;SDS011;74111;45.650;25.612;2024-03-29T08:49:07;2.00;;;0.90;;
84027;SDS011;74111;45.650;25.612;2024-03-29T08:51:35;6.20;;;1.40;;
84027;SDS011;74111;45.650;25.612;2024-03-29T08:54:04;2.00;;;1.30;;
84027;SDS011;74111;45.650;25.612;2024-03-29T08:56:33;5.30;;;1.10;;
84027;SDS011;74111;45.650;25.612;2024-03-29T08:59:05;2.60;;;1.00;;
84027;SDS011;74111;45.650;25.612;2024-03-29T09:01:40;1.80;;;0.80;;
84027;SDS011;74111;45.650;25.612;2024-03-29T09:04:12;2.40;;;0.80;;
84027;SDS011;74111;45.650;25.612;2024-03-29T09:06:43;2.60;;;1.40;;
84027;SDS011;74111;45.650;25.612;2024-03-29T09:09:13;2.10;;;1.00;;
84027;SDS011;74111;45.650;25.612;2024-03-29T09:11:43;8.30;;;1.10;;
84027;SDS011;74111;45.650;25.612;2024-03-29T09:14:12;2.20;;;1.00;;
84027;SDS011;74111;45.650;25.612;2024-03-29T09:16:42;3.40;;;1.10;;
84027;SDS011;74111;45.650;25.612;2024-03-29T09:19:12;1.20;;;0.90;;
84027;SDS011;74111;45.650;25.612;2024-03-29T09:21:40;2.30;;;1.00;;
84027;SDS011;74111;45.650;25.612;2024-03-29T09:24:10;2.00;;;1.50;;
84027;SDS011;74111;45.650;25.612;2024-03-29T09:26:39;2.30;;;1.00;;
84027;SDS011;74111;45.650;25.612;2024-03-29T09:29:12;2.50;;;1.70;;
84027;SDS011;74111;45.650;25.612;2024-03-29T09:31:43;3.70;;;0.80;;
84027;SDS011;74111;45.650;25.612;2024-03-29T09:34:12;2.80;;;1.10;;
84027;SDS011;74111;45.650;25.612;2024-03-29T09:36:40;4.50;;;0.90;;
84027;SDS011;74111;45.650;25.612;2024-03-29T09:39:09;2.00;;;0.90;;
84027;SDS011;74111;45.650;25.612;2024-03-29T09:41:38;2.00;;;1.20;;
84027;SDS011;74111;45.650;25.612;2024-03-29T09:44:12;2.10;;;0.80;;
84027;SDS011;74111;45.650;25.612;2024-03-29T09:46:42;2.20;;;1.10;;
84027;SDS011;74111;45.650;25.612;2024-03-29T09:49:12;2.10;;;1.10;;
84027;SDS011;74111;45.650;25.612;2024-03-29T09:51:43;1.40;;;0.80;;
84027;SDS011;74111;45.650;25.612;2024-03-29T09:54:13;3.70;;;1.60;;
84027;SDS011;74111;45.650;25.612;2024-03-29T09:56:43;3.50;;;1.20;;
84027;SDS011;74111;45.650;25.612;2024-03-29T09:59:12;3.10;;;1.50;;
84027;SDS011;74111;45.650;25.612;2024-03-29T10:04:10;1.00;;;0.70;;
84027;SDS011;74111;45.650;25.612;2024-03-29T10:06:39;1.40;;;0.90;;
84027;SDS011;74111;45.650;25.612;2024-03-29T10:09:11;1.70;;;1.00;;
84027;SDS011;74111;45.650;25.612;2024-03-29T10:11:40;1.60;;;0.90;;
84027;SDS011;74111;45.650;25.612;2024-03-29T10:14:11;5.80;;;1.70;;
84027;SDS011;74111;45.650;25.612;2024-03-29T10:16:40;5.90;;;1.10;;
84027;SDS011;74111;45.650;25.612;2024-03-29T10:19:11;7.50;;;1.30;;
84027;SDS011;74111;45.650;25.612;2024-03-29T10:21:40;6.80;;;1.50;;
84027;SDS011;74111;45.650;25.612;2024-03-29T10:26:49;1.20;;;0.70;;
84027;SDS011;74111;45.650;25.612;2024-03-29T10:29:18;1.70;;;0.80;;
84027;SDS011;74111;45.650;25.612;2024-03-29T10:31:47;3.90;;;0.80;;
84027;SDS011;74111;45.650;25.612;2024-03-29T10:34:19;2.30;;;0.80;;
84027;SDS011;74111;45.650;25.612;2024-03-29T10:36:47;4.00;;;0.90;;
84027;SDS011;74111;45.650;25.612;2024-03-29T10:39:19;5.30;;;1.20;;
84027;SDS011;74111;45.650;25.612;2024-03-29T10:41:49;2.20;;;1.10;;
84027;SDS011;74111;45.650;25.612;2024-03-29T10:44:19;2.50;;;1.40;;
84027;SDS011;74111;45.650;25.612;2024-03-29T10:46:49;2.60;;;1.00;;
84027;SDS011;74111;45.650;25.612;2024-03-29T10:49:20;4.50;;;0.90;;
84027;SDS011;74111;45.650;25.612;2024-03-29T10:51:52;1.80;;;0.90;;
84027;SDS011;74111;45.650;25.612;2024-03-29T10:54:23;3.60;;;1.10;;
84027;SDS011;74111;45.650;25.612;2024-03-29T10:56:58;2.20;;;0.90;;
84027;SDS011;74111;45.650;25.612;2024-03-29T10:59:40;5.60;;;1.20;;
84027;SDS011;74111;45.650;25.612;2024-03-29T11:02:39;1.30;;;0.90;;
84027;SDS011;74111;45.650;25.612;2024-03-29T11:05:15;2.80;;;1.20;;
84027;SDS011;74111;45.650;25.612;2024-03-29T11:07:44;1.00;;;0.70;;
84027;SDS011;74111;45.650;25.612;2024-03-29T11:10:18;2.90;;;0.90;;
84027;SDS011;74111;45.650;25.612;2024-03-29T11:15:41;2.70;;;1.20;;
84027;SDS011;74111;45.650;25.612;2024-03-29T11:18:17;2.70;;;0.70;;
84027;SDS011;74111;45.650;25.612;2024-03-29T11:20:47;3.80;;;0.80;;
84027;SDS011;74111;45.650;25.612;2024-03-29T11:23:20;3.00;;;1.00;;
84027;SDS011;74111;45.650;25.612;2024-03-29T11:25:52;2.10;;;0.70;;
84027;SDS011;74111;45.650;25.612;2024-03-29T11:28:27;1.50;;;0.80;;
84027;SDS011;74111;45.650;25.612;2024-03-29T11:30:58;5.70;;;1.20;;
84027;SDS011;74111;45.650;25.612;2024-03-29T11:36:28;1.70;;;0.70;;
84027;SDS011;74111;45.650;25.612;2024-03-29T11:38:57;2.20;;;1.00;;
84027;SDS011;74111;45.650;25.612;2024-03-29T11:41:27;3.10;;;1.50;;
84027;SDS011;74111;45.650;25.612;2024-03-29T11:43:57;2.30;;;0.70;;
84027;SDS011;74111;45.650;25.612;2024-03-29T11:46:27;2.10;;;1.00;;
84027;SDS011;74111;45.650;25.612;2024-03-29T11:49:01;1.70;;;0.90;;
84027;SDS011;74111;45.650;25.612;2024-03-29T11:51:32;2.00;;;1.10;;
84027;SDS011;74111;45.650;25.612;2024-03-29T11:54:01;1.70;;;1.00;;
84027;SDS011;74111;45.650;25.612;2024-03-29T11:56:31;3.10;;;0.70;;
84027;SDS011;74111;45.650;25.612;2024-03-29T11:58:59;2.40;;;0.90;;
84027;SDS011;74111;45.650;25.612;2024-03-29T12:01:28;1.80;;;1.00;;
84027;SDS011;74111;45.650;25.612;2024-03-29T12:03:58;1.50;;;0.80;;
84027;SDS011;74111;45.650;25.612;2024-03-29T12:06:26;3.60;;;1.20;;
84027;SDS011;74111;45.650;25.612;2024-03-29T12:08:55;2.60;;;0.80;;
84027;SDS011;74111;45.650;25.612;2024-03-29T12:11:26;3.70;;;0.90;;
84027;SDS011;74111;45.650;25.612;2024-03-29T12:13:56;5.00;;;1.20;;
84027;SDS011;74111;45.650;25.612;2024-03-29T12:16:26;2.70;;;1.00;;
84027;SDS011;74111;45.650;25.612;2024-03-29T12:18:55;2.00;;;1.00;;
84027;SDS011;74111;45.650;25.612;2024-03-29T12:21:24;4.80;;;1.90;;
84027;SDS011;74111;45.650;25.612;2024-03-29T12:23:53;2.30;;;1.20;;
84027;SDS011;74111;45.650;25.612;2024-03-29T12:26:21;4.30;;;1.20;;
84027;SDS011;74111;45.650;25.612;2024-03-29T12:28:51;3.00;;;0.90;;
84027;SDS011;74111;45.650;25.612;2024-03-29T12:31:24;2.40;;;0.70;;
84027;SDS011;74111;45.650;25.612;2024-03-29T12:33:53;1.70;;;0.80;;
84027;SDS011;74111;45.650;25.612;2024-03-29T12:36:24;2.20;;;1.20;;
84027;SDS011;74111;45.650;25.612;2024-03-29T12:38:55;2.30;;;1.00;;
84027;SDS011;74111;45.650;25.612;2024-03-29T12:41:26;4.20;;;1.00;;
84027;SDS011;74111;45.650;25.612;2024-03-29T12:43:55;3.80;;;0.80;;
84027;SDS011;74111;45.650;25.612;2024-03-29T12:46:23;2.70;;;0.90;;
84027;SDS011;74111;45.650;25.612;2024-03-29T12:49:00;4.10;;;1.10;;
84027;SDS011;74111;45.650;25.612;2024-03-29T12:51:31;3.30;;;0.80;;
84027;SDS011;74111;45.650;25.612;2024-03-29T12:54:04;2.50;;;0.80;;
84027;SDS011;74111;45.650;25.612;2024-03-29T12:56:33;2.60;;;1.50;;
84027;SDS011;74111;45.650;25.612;2024-03-29T12:59:04;1.90;;;0.90;;
84027;SDS011;74111;45.650;25.612;2024-03-29T13:01:33;3.50;;;1.10;;
84027;SDS011;74111;45.650;25.612;2024-03-29T13:04:01;2.20;;;1.00;;
84027;SDS011;74111;45.650;25.612;2024-03-29T13:06:30;3.60;;;0.90;;
84027;SDS011;74111;45.650;25.612;2024-03-29T13:08:58;2.30;;;0.90;;
84027;SDS011;74111;45.650;25.612;2024-03-29T13:11:26;4.10;;;1.30;;
84027;SDS011;74111;45.650;25.612;2024-03-29T13:13:55;1.80;;;0.70;;
84027;SDS011;74111;45.650;25.612;2024-03-29T13:16:24;3.00;;;1.00;;
84027;SDS011;74111;45.650;25.612;2024-03-29T13:18:53;2.90;;;1.70;;
84027;SDS011;74111;45.650;25.612;2024-03-29T13:21:21;1.70;;;1.00;;
84027;SDS011;74111;45.650;25.612;2024-03-29T13:23:49;2.90;;;1.70;;
84027;SDS011;74111;45.650;25.612;2024-03-29T13:26:18;2.50;;;1.30;;
84027;SDS011;74111;45.650;25.612;2024-03-29T13:28:47;2.60;;;0.90;;
84027;SDS011;74111;45.650;25.612;2024-03-29T13:31:16;2.50;;;0.90;;
84027;SDS011;74111;45.650;25.612;2024-03-29T13:33:45;3.70;;;1.00;;
84027;SDS011;74111;45.650;25.612;2024-03-29T13:36:15;3.50;;;0.90;;
84027;SDS011;74111;45.650;25.612;2024-03-29T13:38:44;3.60;;;1.10;;
84027;SDS011;74111;45.650;25.612;2024-03-29T13:41:26;4.60;;;2.40;;
84027;SDS011;74111;45.650;25.612;2024-03-29T13:43:54;2.80;;;1.10;;
84027;SDS011;74111;45.650;25.612;2024-03-29T13:46:22;4.90;;;2.00;;
84027;SDS011;74111;45.650;25.612;2024-03-29T13:48:51;2.00;;;1.00;;
84027;SDS011;74111;45.650;25.612;2024-03-29T13:51:21;2.10;;;0.90;;
84027;SDS011;74111;45.650;25.612;2024-03-29T13:53:50;2.50;;;0.90;;
84027;SDS011;74111;45.650;25.612;2024-03-29T13:56:18;2.40;;;0.90;;
84027;SDS011;74111;45.650;25.612;2024-03-29T13:58:47;2.10;;;0.90;;
84027;SDS011;74111;45.650;25.612;2024-03-29T14:01:16;3.20;;;2.10;;
84027;SDS011;74111;45.650;25.612;2024-03-29T14:03:44;2.80;;;1.50;;
84027;SDS011;74111;45.650;25.612;2024-03-29T14:06:13;4.30;;;1.30;;
84027;SDS011;74111;45.650;25.612;2024-03-29T14:08:42;3.80;;;1.00;;
84027;SDS011;74111;45.650;25.612;2024-03-29T14:11:11;8.60;;;1.40;;
84027;SDS011;74111;45.650;25.612;2024-03-29T14:13:41;4.10;;;1.20;;
84027;SDS011;74111;45.650;25.612;2024-03-29T14:16:11;3.50;;;1.30;;
84027;SDS011;74111;45.650;25.612;2024-03-29T14:18:40;2.20;;;1.00;;
84027;SDS011;74111;45.650;25.612;2024-03-29T14:21:08;5.40;;;0.90;;
84027;SDS011;74111;45.650;25.612;2024-03-29T14:23:37;2.40;;;0.90;;
84027;SDS011;74111;45.650;25.612;2024-03-29T14:26:06;3.30;;;1.30;;
84027;SDS011;74111;45.650;25.612;2024-03-29T14:28:35;3.60;;;1.40;;
84027;SDS011;74111;45.650;25.612;2024-03-29T14:31:04;2.00;;;0.90;;
84027;SDS011;74111;45.650;25.612;2024-03-29T14:33:32;2.70;;;1.00;;
84027;SDS011;74111;45.650;25.612;2024-03-29T14:36:01;5.30;;;1.20;;
84027;SDS011;74111;45.650;25.612;2024-03-29T14:38:31;3.80;;;1.10;;
84027;SDS011;74111;45.650;25.612;2024-03-29T14:41:01;1.70;;;1.00;;
84027;SDS011;74111;45.650;25.612;2024-03-29T14:43:30;4.60;;;1.20;;
84027;SDS011;74111;45.650;25.612;2024-03-29T14:46:00;3.00;;;1.30;;
84027;SDS011;74111;45.650;25.612;2024-03-29T14:48:30;2.20;;;1.00;;
84027;SDS011;74111;45.650;25.612;2024-03-29T14:50:58;4.10;;;1.60;;
84027;SDS011;74111;45.650;25.612;2024-03-29T14:53:27;3.20;;;1.60;;
84027;SDS011;74111;45.650;25.612;2024-03-29T14:55:57;4.90;;;1.40;;
84027;SDS011;74111;45.650;25.612;2024-03-29T14:58:44;2.20;;;1.00;;
84027;SDS011;74111;45.650;25.612;2024-03-29T15:01:14;2.70;;;1.20;;
84027;SDS011;74111;45.650;25.612;2024-03-29T15:03:44;4.90;;;1.40;;
84027;SDS011;74111;45.650;25.612;2024-03-29T15:06:13;2.30;;;1.20;;
84027;SDS011;74111;45.650;25.612;2024-03-29T15:08:46;3.70;;;1.10;;
84027;SDS011;74111;45.650;25.612;2024-03-29T15:11:15;2.40;;;1.30;;
84027;SDS011;74111;45.650;25.612;2024-03-29T15:13:44;3.10;;;1.20;;
84027;SDS011;74111;45.650;25.612;2024-03-29T15:16:14;3.40;;;1.10;;
84027;SDS011;74111;45.650;25.612;2024-03-29T15:18:43;3.40;;;1.20;;